sensor_id;sensor_type;location;lat;lon;timestamp;pressure;altitude;pressure_sealevel;temperature;humidity
2685;BME280;1352;48.446;9.156;2023-09-12T00:00:06;95030.97;;;24.80;59.90
2685;BME280;1352;48.446;9.156;2023-09-12T00:02:34;95031.53;;;24.82;59.21
2685;BME280;1352;48.446;9.156;2023-09-12T00:05:02;95033.03;;;24.66;60.62
2685;BME280;1352;48.446;9.156;2023-09-12T00:07:29;95029.69;;;24.59;60.99
2685;BME280;1352;48.446;9.156;2023-09-12T00:09:56;95031.88;;;24.51;60.79
2685;BME280;1352;48.446;9.156;2023-09-12T00:12:23;95039.47;;;24.35;61.20
2685;BME280;1352;48.446;9.156;2023-09-12T00:14:50;95034.69;;;24.26;61.73
2685;BME280;1352;48.446;9.156;2023-09-12T00:17:17;95030.22;;;24.20;62.20
2685;BME280;1352;48.446;9.156;2023-09-12T00:19:44;95027.19;;;24.16;62.71
2685;BME280;1352;48.446;9.156;2023-09-12T00:22:13;95020.22;;;24.33;61.57
2685;BME280;1352;48.446;9.156;2023-09-12T00:24:40;95020.69;;;24.30;61.46
2685;BME280;1352;48.446;9.156;2023-09-12T00:27:07;95020.56;;;24.37;60.86
2685;BME280;1352;48.446;9.156;2023-09-12T00:29:34;95019.56;;;24.50;60.30
2685;BME280;1352;48.446;9.156;2023-09-12T00:32:01;95019.63;;;24.31;61.03
2685;BME280;1352;48.446;9.156;2023-09-12T00:34:27;95015.34;;;24.30;61.27
2685;BME280;1352;48.446;9.156;2023-09-12T00:36:54;95017.66;;;23.97;64.24
2685;BME280;1352;48.446;9.156;2023-09-12T00:39:23;95019.94;;;23.93;64.42
2685;BME280;1352;48.446;9.156;2023-09-12T00:41:50;95013.91;;;23.86;64.81
2685;BME280;1352;48.446;9.156;2023-09-12T00:44:16;95018.47;;;23.43;67.48
2685;BME280;1352;48.446;9.156;2023-09-12T00:46:43;95024.53;;;23.31;68.44
2685;BME280;1352;48.446;9.156;2023-09-12T00:49:11;95021.97;;;23.43;67.34
2685;BME280;1352;48.446;9.156;2023-09-12T00:51:39;95019.09;;;23.26;68.71
2685;BME280;1352;48.446;9.156;2023-09-12T00:54:07;95019.75;;;23.40;67.46
2685;BME280;1352;48.446;9.156;2023-09-12T00:56:35;95007.63;;;23.62;65.55
2685;BME280;1352;48.446;9.156;2023-09-12T00:59:03;95008.13;;;23.71;65.10
2685;BME280;1352;48.446;9.156;2023-09-12T01:01:31;95004.06;;;23.50;66.36
2685;BME280;1352;48.446;9.156;2023-09-12T01:03:58;95011.00;;;23.33;67.15
2685;BME280;1352;48.446;9.156;2023-09-12T01:06:24;95017.06;;;23.22;68.54
2685;BME280;1352;48.446;9.156;2023-09-12T01:08:52;95017.31;;;23.38;67.08
2685;BME280;1352;48.446;9.156;2023-09-12T01:11:19;95015.91;;;23.36;67.58
2685;BME280;1352;48.446;9.156;2023-09-12T01:13:48;95010.41;;;23.31;67.59
2685;BME280;1352;48.446;9.156;2023-09-12T01:16:15;95014.28;;;23.35;67.47
2685;BME280;1352;48.446;9.156;2023-09-12T01:18:41;95015.69;;;23.37;67.17
2685;BME280;1352;48.446;9.156;2023-09-12T01:21:14;95018.13;;;23.39;67.37
2685;BME280;1352;48.446;9.156;2023-09-12T01:23:48;95013.06;;;23.31;67.49
2685;BME280;1352;48.446;9.156;2023-09-12T01:26:26;95016.72;;;23.36;67.49
2685;BME280;1352;48.446;9.156;2023-09-12T01:28:56;95013.53;;;23.46;66.88
2685;BME280;1352;48.446;9.156;2023-09-12T01:31:23;95018.47;;;23.43;67.29
2685;BME280;1352;48.446;9.156;2023-09-12T01:33:54;95020.00;;;23.57;66.85
2685;BME280;1352;48.446;9.156;2023-09-12T01:36:21;95018.34;;;23.37;67.90
2685;BME280;1352;48.446;9.156;2023-09-12T01:38:48;95024.28;;;23.40;67.90
2685;BME280;1352;48.446;9.156;2023-09-12T01:41:15;95024.09;;;23.34;67.88
2685;BME280;1352;48.446;9.156;2023-09-12T01:43:42;95018.25;;;23.44;67.75
2685;BME280;1352;48.446;9.156;2023-09-12T01:46:11;95023.50;;;23.32;67.27
2685;BME280;1352;48.446;9.156;2023-09-12T01:48:38;95020.53;;;23.41;67.15
2685;BME280;1352;48.446;9.156;2023-09-12T01:51:06;95019.81;;;23.33;67.33
2685;BME280;1352;48.446;9.156;2023-09-12T01:53:33;95022.03;;;23.36;67.56
2685;BME280;1352;48.446;9.156;2023-09-12T01:56:01;95025.09;;;23.40;67.19
2685;BME280;1352;48.446;9.156;2023-09-12T01:58:28;95020.53;;;23.41;67.27
2685;BME280;1352;48.446;9.156;2023-09-12T02:00:55;95023.81;;;23.43;67.60
2685;BME280;1352;48.446;9.156;2023-09-12T02:03:23;95012.13;;;23.44;67.12
2685;BME280;1352;48.446;9.156;2023-09-12T02:05:50;95014.66;;;23.38;67.20
2685;BME280;1352;48.446;9.156;2023-09-12T02:08:17;95011.69;;;23.47;67.19
2685;BME280;1352;48.446;9.156;2023-09-12T02:10:44;95015.22;;;23.41;67.77
2685;BME280;1352;48.446;9.156;2023-09-12T02:13:11;95017.06;;;23.22;70.69
2685;BME280;1352;48.446;9.156;2023-09-12T02:15:37;95011.09;;;23.26;70.77
2685;BME280;1352;48.446;9.156;2023-09-12T02:18:04;95013.47;;;23.53;68.44
2685;BME280;1352;48.446;9.156;2023-09-12T02:20:33;95005.13;;;23.49;68.84
2685;BME280;1352;48.446;9.156;2023-09-12T02:23:00;95003.31;;;23.25;70.21
2685;BME280;1352;48.446;9.156;2023-09-12T02:25:26;94995.25;;;23.31;70.30
2685;BME280;1352;48.446;9.156;2023-09-12T02:27:53;95001.78;;;23.17;70.22
2685;BME280;1352;48.446;9.156;2023-09-12T02:30:20;94994.59;;;23.18;70.12
2685;BME280;1352;48.446;9.156;2023-09-12T02:32:47;94998.38;;;23.10;70.39
2685;BME280;1352;48.446;9.156;2023-09-12T02:35:14;94993.19;;;23.15;70.39
2685;BME280;1352;48.446;9.156;2023-09-12T02:37:42;95002.06;;;23.09;70.62
2685;BME280;1352;48.446;9.156;2023-09-12T02:40:09;94995.03;;;23.15;70.13
2685;BME280;1352;48.446;9.156;2023-09-12T02:42:37;94994.38;;;23.19;70.61
2685;BME280;1352;48.446;9.156;2023-09-12T02:45:04;94998.44;;;23.22;70.44
2685;BME280;1352;48.446;9.156;2023-09-12T02:47:31;94984.09;;;23.23;69.89
2685;BME280;1352;48.446;9.156;2023-09-12T02:49:58;94987.56;;;23.23;70.02
2685;BME280;1352;48.446;9.156;2023-09-12T02:52:25;94983.75;;;23.19;70.08
2685;BME280;1352;48.446;9.156;2023-09-12T02:54:53;94982.75;;;23.32;69.50
2685;BME280;1352;48.446;9.156;2023-09-12T02:57:20;94975.84;;;23.49;68.54
2685;BME280;1352;48.446;9.156;2023-09-12T02:59:47;94985.06;;;23.28;70.08
2685;BME280;1352;48.446;9.156;2023-09-12T03:02:14;94982.97;;;23.12;72.23
2685;BME280;1352;48.446;9.156;2023-09-12T03:04:41;94987.88;;;23.15;71.99
2685;BME280;1352;48.446;9.156;2023-09-12T03:07:08;94993.53;;;22.82;74.46
2685;BME280;1352;48.446;9.156;2023-09-12T03:09:34;94989.53;;;22.67;75.41
2685;BME280;1352;48.446;9.156;2023-09-12T03:12:04;94994.81;;;22.48;77.24
2685;BME280;1352;48.446;9.156;2023-09-12T03:14:31;94990.31;;;22.49;77.42
2685;BME280;1352;48.446;9.156;2023-09-12T03:16:58;94989.38;;;22.86;73.40
2685;BME280;1352;48.446;9.156;2023-09-12T03:19:25;94987.75;;;22.85;73.39
2685;BME280;1352;48.446;9.156;2023-09-12T03:21:51;94980.66;;;22.79;73.54
2685;BME280;1352;48.446;9.156;2023-09-12T03:24:18;94982.34;;;22.74;74.52
2685;BME280;1352;48.446;9.156;2023-09-12T03:26:46;94974.03;;;22.63;74.65
2685;BME280;1352;48.446;9.156;2023-09-12T03:29:15;94982.44;;;22.85;73.43
2685;BME280;1352;48.446;9.156;2023-09-12T03:31:42;94981.94;;;22.70;73.51
2685;BME280;1352;48.446;9.156;2023-09-12T03:34:08;94974.97;;;22.76;73.22
2685;BME280;1352;48.446;9.156;2023-09-12T03:36:35;94977.63;;;22.76;73.22
2685;BME280;1352;48.446;9.156;2023-09-12T03:39:02;94971.25;;;22.77;72.92
2685;BME280;1352;48.446;9.156;2023-09-12T03:41:30;94965.44;;;22.86;72.67
2685;BME280;1352;48.446;9.156;2023-09-12T03:43:59;94971.16;;;22.90;72.66
2685;BME280;1352;48.446;9.156;2023-09-12T03:46:27;94970.25;;;22.96;72.52
2685;BME280;1352;48.446;9.156;2023-09-12T03:48:54;94974.47;;;23.04;72.40
2685;BME280;1352;48.446;9.156;2023-09-12T03:51:21;94978.63;;;22.99;72.96
2685;BME280;1352;48.446;9.156;2023-09-12T03:53:48;94978.16;;;22.84;75.11
2685;BME280;1352;48.446;9.156;2023-09-12T03:56:15;94971.66;;;22.98;73.18
2685;BME280;1352;48.446;9.156;2023-09-12T03:58:45;94969.00;;;22.98;72.41
2685;BME280;1352;48.446;9.156;2023-09-12T04:01:12;94968.63;;;22.95;72.63
2685;BME280;1352;48.446;9.156;2023-09-12T04:03:40;94967.38;;;22.97;72.59
2685;BME280;1352;48.446;9.156;2023-09-12T04:06:07;94970.84;;;22.98;72.51
2685;BME280;1352;48.446;9.156;2023-09-12T04:08:34;94970.44;;;23.01;72.16
2685;BME280;1352;48.446;9.156;2023-09-12T04:11:01;94968.34;;;23.03;72.12
2685;BME280;1352;48.446;9.156;2023-09-12T04:13:28;94975.16;;;22.99;72.15
2685;BME280;1352;48.446;9.156;2023-09-12T04:15:55;94973.72;;;22.78;75.15
2685;BME280;1352;48.446;9.156;2023-09-12T04:18:23;94976.19;;;22.48;77.15
2685;BME280;1352;48.446;9.156;2023-09-12T04:20:51;94972.41;;;22.87;73.71
2685;BME280;1352;48.446;9.156;2023-09-12T04:23:20;94975.78;;;22.76;73.71
2685;BME280;1352;48.446;9.156;2023-09-12T04:25:47;94979.94;;;22.65;73.94
2685;BME280;1352;48.446;9.156;2023-09-12T04:28:14;94970.78;;;22.61;74.28
2685;BME280;1352;48.446;9.156;2023-09-12T04:30:41;94966.19;;;22.69;74.05
2685;BME280;1352;48.446;9.156;2023-09-12T04:33:08;94966.81;;;22.71;74.05
2685;BME280;1352;48.446;9.156;2023-09-12T04:35:35;94963.59;;;22.87;72.82
2685;BME280;1352;48.446;9.156;2023-09-12T04:38:03;94965.44;;;22.86;73.12
2685;BME280;1352;48.446;9.156;2023-09-12T04:40:30;94971.88;;;22.79;73.46
2685;BME280;1352;48.446;9.156;2023-09-12T04:42:57;94971.66;;;22.80;73.43
2685;BME280;1352;48.446;9.156;2023-09-12T04:45:25;94965.94;;;22.77;73.99
2685;BME280;1352;48.446;9.156;2023-09-12T04:47:51;94960.19;;;22.80;73.96
2685;BME280;1352;48.446;9.156;2023-09-12T04:50:19;94969.44;;;22.95;73.48
2685;BME280;1352;48.446;9.156;2023-09-12T04:52:45;94962.44;;;22.83;73.95
2685;BME280;1352;48.446;9.156;2023-09-12T04:55:14;94962.19;;;22.84;74.67
2685;BME280;1352;48.446;9.156;2023-09-12T04:57:40;94961.84;;;22.74;75.71
2685;BME280;1352;48.446;9.156;2023-09-12T05:00:08;94961.38;;;22.59;77.50
2685;BME280;1352;48.446;9.156;2023-09-12T05:02:36;94957.16;;;22.76;75.70
2685;BME280;1352;48.446;9.156;2023-09-12T05:05:03;94960.50;;;22.65;75.67
2685;BME280;1352;48.446;9.156;2023-09-12T05:07:30;94962.38;;;22.64;75.81
2685;BME280;1352;48.446;9.156;2023-09-12T05:09:57;94959.72;;;22.64;76.01
2685;BME280;1352;48.446;9.156;2023-09-12T05:12:25;94962.50;;;22.70;75.36
2685;BME280;1352;48.446;9.156;2023-09-12T05:14:52;94963.66;;;22.80;75.15
2685;BME280;1352;48.446;9.156;2023-09-12T05:17:19;94963.50;;;22.75;75.01
2685;BME280;1352;48.446;9.156;2023-09-12T05:19:46;94960.13;;;22.86;74.29
2685;BME280;1352;48.446;9.156;2023-09-12T05:22:13;94962.03;;;22.79;74.72
2685;BME280;1352;48.446;9.156;2023-09-12T05:24:40;94954.59;;;22.88;74.36
2685;BME280;1352;48.446;9.156;2023-09-12T05:27:06;94956.94;;;22.78;74.95
2685;BME280;1352;48.446;9.156;2023-09-12T05:29:35;94963.53;;;22.69;75.55
2685;BME280;1352;48.446;9.156;2023-09-12T05:32:02;94964.56;;;22.68;77.32
2685;BME280;1352;48.446;9.156;2023-09-12T05:34:29;94972.69;;;22.97;74.95
2685;BME280;1352;48.446;9.156;2023-09-12T05:36:56;94982.41;;;23.10;73.81
2685;BME280;1352;48.446;9.156;2023-09-12T05:39:23;94979.78;;;23.04;74.51
2685;BME280;1352;48.446;9.156;2023-09-12T05:41:50;94984.03;;;23.11;75.10
2685;BME280;1352;48.446;9.156;2023-09-12T05:44:16;94982.69;;;23.20;74.95
2685;BME280;1352;48.446;9.156;2023-09-12T05:46:46;94980.63;;;23.22;76.12
2685;BME280;1352;48.446;9.156;2023-09-12T05:49:13;94984.34;;;23.21;78.02
2685;BME280;1352;48.446;9.156;2023-09-12T05:51:39;94980.78;;;23.27;78.97
2685;BME280;1352;48.446;9.156;2023-09-12T05:54:07;94980.38;;;23.42;79.95
2685;BME280;1352;48.446;9.156;2023-09-12T05:56:34;94976.09;;;23.78;79.79
2685;BME280;1352;48.446;9.156;2023-09-12T05:59:01;94979.38;;;23.91;78.35
2685;BME280;1352;48.446;9.156;2023-09-12T06:01:28;94982.34;;;24.13;76.72
2685;BME280;1352;48.446;9.156;2023-09-12T06:03:56;94991.28;;;24.19;79.66
2685;BME280;1352;48.446;9.156;2023-09-12T06:06:23;94986.22;;;24.29;76.21
2685;BME280;1352;48.446;9.156;2023-09-12T06:08:50;94989.84;;;24.34;77.72
2685;BME280;1352;48.446;9.156;2023-09-12T06:11:18;94986.16;;;24.47;76.70
2685;BME280;1352;48.446;9.156;2023-09-12T06:13:45;94985.78;;;24.32;79.99
2685;BME280;1352;48.446;9.156;2023-09-12T06:16:12;94988.09;;;24.28;76.78
2685;BME280;1352;48.446;9.156;2023-09-12T06:18:39;94996.78;;;23.94;76.60
2685;BME280;1352;48.446;9.156;2023-09-12T06:21:07;95004.22;;;24.03;75.49
2685;BME280;1352;48.446;9.156;2023-09-12T06:23:34;94997.94;;;23.68;78.98
2685;BME280;1352;48.446;9.156;2023-09-12T06:26:03;95000.50;;;23.74;73.40
2685;BME280;1352;48.446;9.156;2023-09-12T06:28:31;94997.34;;;23.66;75.93
2685;BME280;1352;48.446;9.156;2023-09-12T06:30:58;94997.13;;;23.67;75.75
2685;BME280;1352;48.446;9.156;2023-09-12T06:33:25;95002.59;;;23.72;76.80
2685;BME280;1352;48.446;9.156;2023-09-12T06:35:52;95002.66;;;23.66;76.83
2685;BME280;1352;48.446;9.156;2023-09-12T06:38:21;94994.63;;;23.54;78.54
2685;BME280;1352;48.446;9.156;2023-09-12T06:40:48;94997.63;;;23.40;77.48
2685;BME280;1352;48.446;9.156;2023-09-12T06:43:15;94998.59;;;23.27;78.39
2685;BME280;1352;48.446;9.156;2023-09-12T06:45:42;95005.25;;;23.36;78.59
2685;BME280;1352;48.446;9.156;2023-09-12T06:48:09;95007.53;;;23.32;80.01
2685;BME280;1352;48.446;9.156;2023-09-12T06:50:36;95013.16;;;23.43;78.21
2685;BME280;1352;48.446;9.156;2023-09-12T06:53:04;95008.56;;;23.13;80.90
2685;BME280;1352;48.446;9.156;2023-09-12T06:55:33;95016.59;;;22.88;79.23
2685;BME280;1352;48.446;9.156;2023-09-12T06:58:00;95022.81;;;22.82;79.50
2685;BME280;1352;48.446;9.156;2023-09-12T07:00:28;95028.97;;;22.76;80.66
2685;BME280;1352;48.446;9.156;2023-09-12T07:02:56;95028.59;;;22.97;79.72
2685;BME280;1352;48.446;9.156;2023-09-12T07:05:23;95034.19;;;22.89;80.72
2685;BME280;1352;48.446;9.156;2023-09-12T07:07:50;95035.44;;;22.87;81.03
2685;BME280;1352;48.446;9.156;2023-09-12T07:10:17;95034.34;;;22.94;81.93
2685;BME280;1352;48.446;9.156;2023-09-12T07:12:45;95034.22;;;23.08;81.87
2685;BME280;1352;48.446;9.156;2023-09-12T07:15:12;95038.69;;;23.50;79.76
2685;BME280;1352;48.446;9.156;2023-09-12T07:17:39;95031.75;;;23.67;79.86
2685;BME280;1352;48.446;9.156;2023-09-12T07:20:07;95030.75;;;23.80;80.14
2685;BME280;1352;48.446;9.156;2023-09-12T07:22:37;95044.19;;;23.73;77.40
2685;BME280;1352;48.446;9.156;2023-09-12T07:25:04;95037.84;;;23.56;77.75
2685;BME280;1352;48.446;9.156;2023-09-12T07:27:31;95043.56;;;23.35;79.71
2685;BME280;1352;48.446;9.156;2023-09-12T07:29:59;95045.09;;;23.06;81.62
2685;BME280;1352;48.446;9.156;2023-09-12T07:32:27;95052.56;;;23.16;83.96
2685;BME280;1352;48.446;9.156;2023-09-12T07:34:54;95055.41;;;23.39;83.42
2685;BME280;1352;48.446;9.156;2023-09-12T07:37:21;95055.28;;;23.52;81.07
2685;BME280;1352;48.446;9.156;2023-09-12T07:39:47;95057.28;;;23.57;80.99
2685;BME280;1352;48.446;9.156;2023-09-12T07:42:14;95058.41;;;23.67;79.66
2685;BME280;1352;48.446;9.156;2023-09-12T07:44:41;95051.47;;;23.96;80.57
2685;BME280;1352;48.446;9.156;2023-09-12T07:47:10;95056.22;;;23.94;77.08
2685;BME280;1352;48.446;9.156;2023-09-12T07:49:37;95054.09;;;24.15;79.23
2685;BME280;1352;48.446;9.156;2023-09-12T07:52:04;95062.44;;;24.36;76.94
2685;BME280;1352;48.446;9.156;2023-09-12T07:54:31;95066.78;;;24.49;74.94
2685;BME280;1352;48.446;9.156;2023-09-12T07:56:58;95067.13;;;24.53;74.75
2685;BME280;1352;48.446;9.156;2023-09-12T07:59:25;95069.69;;;24.59;74.59
2685;BME280;1352;48.446;9.156;2023-09-12T08:01:52;95068.44;;;24.62;76.68
2685;BME280;1352;48.446;9.156;2023-09-12T08:04:20;95074.38;;;24.87;77.45
2685;BME280;1352;48.446;9.156;2023-09-12T08:06:47;95073.97;;;25.25;73.64
2685;BME280;1352;48.446;9.156;2023-09-12T08:09:14;95074.66;;;25.67;73.53
2685;BME280;1352;48.446;9.156;2023-09-12T08:11:41;95076.03;;;25.81;69.51
2685;BME280;1352;48.446;9.156;2023-09-12T08:14:08;95072.97;;;26.01;70.37
2685;BME280;1352;48.446;9.156;2023-09-12T08:16:35;95069.91;;;26.09;69.27
2685;BME280;1352;48.446;9.156;2023-09-12T08:19:02;95068.69;;;26.17;68.85
2685;BME280;1352;48.446;9.156;2023-09-12T08:21:30;95075.28;;;26.38;67.56
2685;BME280;1352;48.446;9.156;2023-09-12T08:23:57;95080.22;;;26.29;66.79
2685;BME280;1352;48.446;9.156;2023-09-12T08:26:24;95078.31;;;26.41;70.41
2685;BME280;1352;48.446;9.156;2023-09-12T08:28:51;95082.06;;;26.74;68.12
2685;BME280;1352;48.446;9.156;2023-09-12T08:31:18;95075.81;;;26.96;64.49
2685;BME280;1352;48.446;9.156;2023-09-12T08:33:45;95076.59;;;27.14;65.20
2685;BME280;1352;48.446;9.156;2023-09-12T08:36:12;95082.44;;;27.44;64.55
2685;BME280;1352;48.446;9.156;2023-09-12T08:38:41;95073.44;;;27.72;66.92
2685;BME280;1352;48.446;9.156;2023-09-12T08:41:08;95074.81;;;27.96;65.96
2685;BME280;1352;48.446;9.156;2023-09-12T08:43:35;95082.31;;;28.38;63.59
2685;BME280;1352;48.446;9.156;2023-09-12T08:46:02;95080.72;;;28.69;62.87
2685;BME280;1352;48.446;9.156;2023-09-12T08:48:29;95074.75;;;28.88;62.48
2685;BME280;1352;48.446;9.156;2023-09-12T08:50:56;95073.63;;;29.11;63.75
2685;BME280;1352;48.446;9.156;2023-09-12T08:53:24;95074.84;;;29.31;65.33
2685;BME280;1352;48.446;9.156;2023-09-12T08:55:53;95072.97;;;29.73;62.27
2685;BME280;1352;48.446;9.156;2023-09-12T08:58:20;95073.28;;;29.82;58.25
2685;BME280;1352;48.446;9.156;2023-09-12T09:00:47;95072.19;;;29.83;51.62
2685;BME280;1352;48.446;9.156;2023-09-12T09:03:14;95084.97;;;29.98;54.43
2685;BME280;1352;48.446;9.156;2023-09-12T09:05:42;95073.25;;;30.29;55.49
2685;BME280;1352;48.446;9.156;2023-09-12T09:08:09;95068.44;;;30.51;53.12
2685;BME280;1352;48.446;9.156;2023-09-12T09:10:37;95070.66;;;30.64;52.07
2685;BME280;1352;48.446;9.156;2023-09-12T09:13:05;95069.06;;;30.94;51.80
2685;BME280;1352;48.446;9.156;2023-09-12T09:15:32;95072.06;;;31.13;53.08
2685;BME280;1352;48.446;9.156;2023-09-12T09:18:01;95077.97;;;31.30;50.40
2685;BME280;1352;48.446;9.156;2023-09-12T09:20:30;95071.78;;;31.24;47.82
2685;BME280;1352;48.446;9.156;2023-09-12T09:22:59;95063.38;;;31.46;44.67
2685;BME280;1352;48.446;9.156;2023-09-12T09:25:26;95068.25;;;31.44;44.16
2685;BME280;1352;48.446;9.156;2023-09-12T09:27:53;95066.34;;;31.70;45.76
2685;BME280;1352;48.446;9.156;2023-09-12T09:30:26;95062.84;;;31.44;41.84
2685;BME280;1352;48.446;9.156;2023-09-12T09:33:06;95055.31;;;31.41;42.47
2685;BME280;1352;48.446;9.156;2023-09-12T09:35:33;95056.81;;;31.93;42.77
2685;BME280;1352;48.446;9.156;2023-09-12T09:37:59;95052.88;;;32.34;42.93
2685;BME280;1352;48.446;9.156;2023-09-12T09:40:26;95054.06;;;32.62;41.52
2685;BME280;1352;48.446;9.156;2023-09-12T09:42:53;95044.56;;;32.26;39.88
2685;BME280;1352;48.446;9.156;2023-09-12T09:45:21;95040.91;;;31.86;38.59
2685;BME280;1352;48.446;9.156;2023-09-12T09:47:50;95036.03;;;31.98;42.29
2685;BME280;1352;48.446;9.156;2023-09-12T09:50:17;95035.13;;;32.23;42.61
2685;BME280;1352;48.446;9.156;2023-09-12T09:52:44;95038.19;;;31.96;41.92
2685;BME280;1352;48.446;9.156;2023-09-12T09:55:13;95040.06;;;31.91;42.38
2685;BME280;1352;48.446;9.156;2023-09-12T09:57:40;95040.97;;;31.76;40.87
2685;BME280;1352;48.446;9.156;2023-09-12T10:00:07;95031.28;;;31.65;41.80
2685;BME280;1352;48.446;9.156;2023-09-12T10:02:40;95038.19;;;31.96;42.85
2685;BME280;1352;48.446;9.156;2023-09-12T10:05:09;95039.53;;;31.94;42.40
2685;BME280;1352;48.446;9.156;2023-09-12T10:07:37;95041.88;;;32.10;44.41
2685;BME280;1352;48.446;9.156;2023-09-12T10:10:05;95032.03;;;32.40;42.62
2685;BME280;1352;48.446;9.156;2023-09-12T10:12:32;95029.00;;;32.51;44.21
2685;BME280;1352;48.446;9.156;2023-09-12T10:15:00;95032.84;;;32.45;41.13
2685;BME280;1352;48.446;9.156;2023-09-12T10:17:30;95023.94;;;32.40;40.32
2685;BME280;1352;48.446;9.156;2023-09-12T10:19:58;95035.38;;;32.66;40.08
2685;BME280;1352;48.446;9.156;2023-09-12T10:22:35;95037.81;;;32.72;40.51
2685;BME280;1352;48.446;9.156;2023-09-12T10:25:03;95033.22;;;32.73;40.88
2685;BME280;1352;48.446;9.156;2023-09-12T10:27:30;95035.16;;;32.62;39.27
2685;BME280;1352;48.446;9.156;2023-09-12T10:29:57;95035.66;;;32.20;40.53
2685;BME280;1352;48.446;9.156;2023-09-12T10:32:25;95041.88;;;32.15;40.06
2685;BME280;1352;48.446;9.156;2023-09-12T10:34:52;95032.81;;;31.81;40.50
2685;BME280;1352;48.446;9.156;2023-09-12T10:37:21;95032.88;;;31.66;42.57
2685;BME280;1352;48.446;9.156;2023-09-12T10:39:50;95028.84;;;31.68;42.58
2685;BME280;1352;48.446;9.156;2023-09-12T10:42:19;95026.91;;;31.79;41.29
2685;BME280;1352;48.446;9.156;2023-09-12T10:44:46;95025.63;;;31.51;43.04
2685;BME280;1352;48.446;9.156;2023-09-12T10:47:13;95029.09;;;31.57;40.90
2685;BME280;1352;48.446;9.156;2023-09-12T10:49:42;95022.72;;;32.12;40.74
2685;BME280;1352;48.446;9.156;2023-09-12T10:52:10;95026.03;;;31.94;40.91
2685;BME280;1352;48.446;9.156;2023-09-12T10:54:37;95016.75;;;32.20;41.54
2685;BME280;1352;48.446;9.156;2023-09-12T10:57:06;95016.31;;;32.47;39.74
2685;BME280;1352;48.446;9.156;2023-09-12T10:59:33;95017.84;;;32.63;40.70
2685;BME280;1352;48.446;9.156;2023-09-12T11:04:47;95015.44;;;32.62;42.14
2685;BME280;1352;48.446;9.156;2023-09-12T11:12:47;95009.56;;;32.88;38.81
2685;BME280;1352;48.446;9.156;2023-09-12T11:15:14;95006.44;;;32.32;38.03
2685;BME280;1352;48.446;9.156;2023-09-12T11:17:42;95009.47;;;32.15;38.04
2685;BME280;1352;48.446;9.156;2023-09-12T11:20:10;95000.63;;;32.54;37.97
2685;BME280;1352;48.446;9.156;2023-09-12T11:22:37;94997.78;;;32.30;39.85
2685;BME280;1352;48.446;9.156;2023-09-12T11:25:05;94998.94;;;32.63;38.97
2685;BME280;1352;48.446;9.156;2023-09-12T11:27:44;94994.69;;;32.91;39.95
2685;BME280;1352;48.446;9.156;2023-09-12T11:30:13;94992.19;;;33.29;39.19
2685;BME280;1352;48.446;9.156;2023-09-12T11:32:40;94995.31;;;33.41;38.45
2685;BME280;1352;48.446;9.156;2023-09-12T11:35:10;94994.72;;;33.44;37.11
2685;BME280;1352;48.446;9.156;2023-09-12T11:37:37;94999.28;;;33.19;35.80
2685;BME280;1352;48.446;9.156;2023-09-12T11:42:46;94991.84;;;33.35;38.34
2685;BME280;1352;48.446;9.156;2023-09-12T11:45:16;94985.41;;;33.31;37.18
2685;BME280;1352;48.446;9.156;2023-09-12T11:47:45;94986.91;;;33.13;36.54
2685;BME280;1352;48.446;9.156;2023-09-12T11:50:25;94977.34;;;33.26;38.98
2685;BME280;1352;48.446;9.156;2023-09-12T11:52:58;94982.47;;;33.51;39.05
2685;BME280;1352;48.446;9.156;2023-09-12T11:55:25;94984.34;;;33.80;39.06
2685;BME280;1352;48.446;9.156;2023-09-12T11:57:52;94976.69;;;33.87;37.99
2685;BME280;1352;48.446;9.156;2023-09-12T12:00:20;94978.66;;;34.00;37.83
2685;BME280;1352;48.446;9.156;2023-09-12T12:02:47;94978.63;;;34.24;36.85
2685;BME280;1352;48.446;9.156;2023-09-12T12:05:15;94978.03;;;34.27;37.43
2685;BME280;1352;48.446;9.156;2023-09-12T12:07:42;94974.63;;;34.40;36.98
2685;BME280;1352;48.446;9.156;2023-09-12T12:10:12;94974.75;;;34.49;36.06
2685;BME280;1352;48.446;9.156;2023-09-12T12:12:39;94973.00;;;34.39;36.62
2685;BME280;1352;48.446;9.156;2023-09-12T12:15:09;94967.06;;;34.37;37.58
2685;BME280;1352;48.446;9.156;2023-09-12T12:17:38;94968.09;;;34.60;36.83
2685;BME280;1352;48.446;9.156;2023-09-12T12:20:07;94973.53;;;34.73;35.89
2685;BME280;1352;48.446;9.156;2023-09-12T12:22:35;94973.06;;;34.71;35.43
2685;BME280;1352;48.446;9.156;2023-09-12T12:25:05;94980.31;;;34.76;34.95
2685;BME280;1352;48.446;9.156;2023-09-12T12:27:33;94969.13;;;34.96;37.37
2685;BME280;1352;48.446;9.156;2023-09-12T12:30:02;94970.75;;;35.11;36.39
2685;BME280;1352;48.446;9.156;2023-09-12T12:32:29;94979.88;;;35.01;37.02
2685;BME280;1352;48.446;9.156;2023-09-12T12:34:57;94974.16;;;34.89;36.87
2685;BME280;1352;48.446;9.156;2023-09-12T12:37:27;94972.28;;;35.17;37.33
2685;BME280;1352;48.446;9.156;2023-09-12T12:39:55;94968.81;;;35.30;36.02
2685;BME280;1352;48.446;9.156;2023-09-12T12:42:22;94969.72;;;35.39;35.51
2685;BME280;1352;48.446;9.156;2023-09-12T12:44:52;94959.78;;;35.49;35.02
2685;BME280;1352;48.446;9.156;2023-09-12T12:47:19;94957.16;;;35.30;35.26
2685;BME280;1352;48.446;9.156;2023-09-12T12:49:50;94965.50;;;35.33;36.31
2685;BME280;1352;48.446;9.156;2023-09-12T12:52:23;94959.88;;;35.30;35.72
2685;BME280;1352;48.446;9.156;2023-09-12T12:54:50;94956.09;;;35.12;38.48
2685;BME280;1352;48.446;9.156;2023-09-12T12:57:20;94962.41;;;35.40;37.85
2685;BME280;1352;48.446;9.156;2023-09-12T12:59:47;94954.28;;;35.54;37.81
2685;BME280;1352;48.446;9.156;2023-09-12T13:02:14;94946.63;;;35.56;36.99
2685;BME280;1352;48.446;9.156;2023-09-12T13:04:41;94955.78;;;35.46;37.08
2685;BME280;1352;48.446;9.156;2023-09-12T13:07:08;94948.56;;;35.23;36.55
2685;BME280;1352;48.446;9.156;2023-09-12T13:09:37;94951.69;;;35.16;38.17
2685;BME280;1352;48.446;9.156;2023-09-12T13:12:05;94952.50;;;34.84;40.07
2685;BME280;1352;48.446;9.156;2023-09-12T13:14:33;94955.28;;;34.98;38.60
2685;BME280;1352;48.446;9.156;2023-09-12T13:17:00;94943.84;;;35.01;37.54
2685;BME280;1352;48.446;9.156;2023-09-12T13:19:28;94936.00;;;34.99;39.37
2685;BME280;1352;48.446;9.156;2023-09-12T13:21:55;94932.59;;;35.21;38.65
2685;BME280;1352;48.446;9.156;2023-09-12T13:24:22;94926.47;;;35.16;40.06
2685;BME280;1352;48.446;9.156;2023-09-12T13:26:51;94924.09;;;35.41;38.46
2685;BME280;1352;48.446;9.156;2023-09-12T13:29:18;94922.41;;;35.46;37.96
2685;BME280;1352;48.446;9.156;2023-09-12T13:31:45;94925.41;;;35.44;37.90
2685;BME280;1352;48.446;9.156;2023-09-12T13:34:12;94922.88;;;35.61;36.45